Time;durP1;ratioP1;P1;durP2;ratioP2;P2;SDS_P1;SDS_P2;PMS_P1;PMS_P2;Temp;Humidity;BMP_temperature;BMP_pressure;BME280_temperature;BME280_humidity;BME280_pressure;Samples;Min_cycle;Max_cycle;Signal;HPM_P1;HPM_P2
2021/03/14 00:00:27;;;;;;;2.35;0.60;;;20.90;35.00;;;;;;5091266;28;20115;-82
2021/03/14 00:02:53;;;;;;;2.78;0.82;;;20.80;34.60;;;;;;5092024;28;20043;-80
2021/03/14 00:05:18;;;;;;;1.17;0.55;;;20.80;34.60;;;;;;5091500;28;20020;-81
2021/03/14 00:07:44;;;;;;;0.82;0.30;;;20.90;34.80;;;;;;5091689;28;20024;-83
2021/03/14 00:10:10;;;;;;;3.13;0.57;;;20.80;34.50;;;;;;5075119;28;20024;-83
2021/03/14 00:12:36;;;;;;;1.08;0.22;;;20.80;34.70;;;;;;5075328;28;20028;-83
2021/03/14 00:15:02;;;;;;;4.20;0.77;;;20.80;34.80;;;;;;5091796;28;20032;-83
2021/03/14 00:17:27;;;;;;;3.50;0.77;;;20.80;34.60;;;;;;5091595;28;20032;-84
2021/03/14 00:19:53;;;;;;;1.50;0.70;;;20.80;34.60;;;;;;5093166;28;20035;-83
2021/03/14 00:22:18;;;;;;;3.15;0.80;;;20.80;34.60;;;;;;5091110;28;20026;-83
2021/03/14 00:24:44;;;;;;;2.70;0.80;;;20.70;34.70;;;;;;5074285;28;20040;-83
2021/03/14 00:27:10;;;;;;;2.05;0.70;;;20.70;34.80;;;;;;5086373;28;20084;-80
2021/03/14 00:29:35;;;;;;;2.75;0.50;;;20.70;35.00;;;;;;5090733;28;20024;-81
2021/03/14 00:32:02;;;;;;;3.67;0.88;;;20.70;34.90;;;;;;5090388;28;20024;-81
2021/03/14 00:34:29;;;;;;;0.57;0.35;;;20.70;34.90;;;;;;5091045;28;20035;-80
2021/03/14 00:36:54;;;;;;;3.72;0.82;;;20.70;35.00;;;;;;5074059;28;20042;-81
2021/03/14 00:39:20;;;;;;;3.17;0.88;;;20.70;34.80;;;;;;5090587;28;20044;-81
2021/03/14 00:41:46;;;;;;;1.20;0.57;;;20.60;35.00;;;;;;5090878;28;20419;-81
2021/03/14 00:44:11;;;;;;;2.35;0.65;;;20.70;35.10;;;;;;5090121;28;20039;-81
2021/03/14 00:46:37;;;;;;;1.67;0.52;;;20.60;35.10;;;;;;5074394;28;20077;-80
2021/03/14 00:49:02;;;;;;;3.45;0.70;;;20.60;35.00;;;;;;5091617;28;20024;-81
2021/03/14 00:51:28;;;;;;;2.70;0.50;;;20.60;35.00;;;;;;5090472;28;20756;-80
2021/03/14 00:53:53;;;;;;;2.03;0.50;;;20.60;35.00;;;;;;5090607;28;20098;-81
2021/03/14 00:56:19;;;;;;;3.10;0.90;;;20.60;34.90;;;;;;5090024;28;20020;-80
2021/03/14 00:58:45;;;;;;;2.70;0.65;;;20.60;34.80;;;;;;5090563;28;20028;-80
2021/03/14 01:01:10;;;;;;;1.65;0.52;;;20.60;34.80;;;;;;5090335;28;20043;-80
2021/03/14 01:03:36;;;;;;;1.10;0.60;;;20.60;34.90;;;;;;5089848;28;20089;-80
2021/03/14 01:06:02;;;;;;;3.28;1.10;;;20.60;34.80;;;;;;5071859;28;20115;-80
2021/03/14 01:08:50;;;;;;;2.67;0.80;;;20.60;35.00;;;;;;5090312;28;20397;-80
2021/03/14 01:11:15;;;;;;;5.38;1.05;;;20.60;35.00;;;;;;5083759;28;20029;-80
2021/03/14 01:13:41;;;;;;;2.63;0.90;;;20.60;35.00;;;;;;5090533;28;20034;-81
2021/03/14 01:16:07;;;;;;;6.05;0.95;;;20.60;35.00;;;;;;5073928;28;20514;-80
2021/03/14 01:18:32;;;;;;;2.75;0.52;;;20.60;35.10;;;;;;5091867;28;20558;-81
2021/03/14 01:20:58;;;;;;;3.33;0.82;;;20.50;35.00;;;;;;5074182;28;20040;-81
2021/03/14 01:23:35;;;;;;;0.88;0.65;;;20.50;35.00;;;;;;5068592;28;20104;-80
2021/03/14 01:26:01;;;;;;;7.60;1.25;;;20.50;34.80;;;;;;5087279;28;20395;-80
2021/03/14 01:28:27;;;;;;;1.95;0.82;;;20.50;34.70;;;;;;5091647;28;20032;-81
2021/03/14 01:30:52;;;;;;;3.55;0.90;;;20.50;34.70;;;;;;5090147;28;20039;-80
2021/03/14 01:33:18;;;;;;;2.50;0.95;;;20.40;34.80;;;;;;5090345;28;20466;-80
2021/03/14 01:35:43;;;;;;;4.68;1.10;;;20.40;34.90;;;;;;5089924;28;20040;-80
2021/03/14 01:38:09;;;;;;;2.85;0.75;;;20.40;34.80;;;;;;5073492;28;20423;-80
2021/03/14 01:40:35;;;;;;;5.35;0.80;;;20.40;34.80;;;;;;5092121;28;20073;-80
2021/03/14 01:43:00;;;;;;;4.05;1.00;;;20.40;34.80;;;;;;5072728;28;20047;-77
2021/03/14 01:45:26;;;;;;;2.30;0.90;;;20.40;34.80;;;;;;5094056;28;20027;-78
2021/03/14 01:47:52;;;;;;;4.95;1.30;;;20.40;34.80;;;;;;5095374;28;20024;-78
2021/03/14 01:50:20;;;;;;;1.73;0.75;;;20.40;35.00;;;;;;5093219;28;20036;-78
2021/03/14 01:52:46;;;;;;;4.70;0.75;;;20.40;35.00;;;;;;5095793;28;20035;-77
2021/03/14 01:55:13;;;;;;;2.97;0.90;;;20.40;35.00;;;;;;5077216;28;20426;-77
2021/03/14 01:57:45;;;;;;;1.52;0.77;;;20.40;35.00;;;;;;5076113;28;20067;-77
2021/03/14 02:00:12;;;;;;;4.78;0.95;;;20.30;35.00;;;;;;5093814;28;20040;-79
2021/03/14 02:02:38;;;;;;;2.95;1.05;;;20.30;34.90;;;;;;5076046;28;20483;-77
2021/03/14 02:05:05;;;;;;;2.78;0.88;;;20.30;34.90;;;;;;5093770;28;20086;-77
2021/03/14 02:07:32;;;;;;;4.13;1.10;;;20.30;34.80;;;;;;5076356;28;20036;-78
2021/03/14 02:09:57;;;;;;;2.40;0.63;;;20.30;35.00;;;;;;5093812;28;20016;-77
2021/03/14 02:12:23;;;;;;;3.90;1.05;;;20.30;35.10;;;;;;5093647;28;20028;-77
2021/03/14 02:14:50;;;;;;;4.30;1.13;;;20.20;34.90;;;;;;5087151;28;20044;-78
2021/03/14 02:17:17;;;;;;;5.22;1.30;;;20.30;35.80;;;;;;5064267;28;20043;-77
2021/03/14 02:19:53;;;;;;;5.88;0.95;;;20.20;35.00;;;;;;5076867;28;20028;-78
2021/03/14 02:22:22;;;;;;;4.82;1.20;;;20.30;35.00;;;;;;5092659;28;20102;-79
2021/03/14 02:24:51;;;;;;;7.85;1.20;;;20.30;35.00;;;;;;5057589;28;20511;-78
2021/03/14 02:27:17;;;;;;;4.22;1.17;;;20.20;35.00;;;;;;5090460;28;20035;-79
2021/03/14 02:29:42;;;;;;;3.28;0.98;;;20.30;35.10;;;;;;5094920;28;20024;-78
2021/03/14 02:32:09;;;;;;;6.82;1.45;;;20.30;35.00;;;;;;5087554;28;20089;-78
2021/03/14 02:34:36;;;;;;;4.18;1.02;;;20.20;34.90;;;;;;5091899;28;20031;-78
2021/03/14 02:37:05;;;;;;;6.55;1.20;;;20.20;34.90;;;;;;5075870;28;20059;-78
2021/03/14 02:39:31;;;;;;;8.98;1.45;;;20.20;34.90;;;;;;5081551;28;20063;-78
2021/03/14 02:41:58;;;;;;;0.65;0.35;;;20.20;35.60;;;;;;5075571;28;20548;-78
2021/03/14 02:44:28;;;;;;;4.57;0.95;;;20.20;34.90;;;;;;5076044;28;20499;-80
2021/03/14 02:46:53;;;;;;;5.38;1.23;;;20.20;34.80;;;;;;5098052;28;20024;-80
2021/03/14 02:49:20;;;;;;;7.70;1.27;;;20.20;34.80;;;;;;5059698;28;20021;-80
2021/03/14 02:51:51;;;;;;;5.85;1.33;;;20.20;34.90;;;;;;5092197;28;20072;-80
2021/03/14 02:54:17;;;;;;;3.25;1.10;;;20.20;35.00;;;;;;5093201;28;20775;-82
2021/03/14 02:56:44;;;;;;;4.00;0.73;;;20.20;35.00;;;;;;5074842;28;20021;-82
2021/03/14 02:59:11;;;;;;;3.13;0.75;;;20.20;35.10;;;;;;5076522;28;20042;-83
2021/03/14 03:01:37;;;;;;;3.95;1.13;;;20.10;34.90;;;;;;5059669;28;20116;-83
2021/03/14 03:04:03;;;;;;;5.50;0.85;;;20.20;34.90;;;;;;5076040;28;20024;-83
2021/03/14 03:06:29;;;;;;;4.70;0.90;;;20.20;35.00;;;;;;5076088;28;20060;-83
2021/03/14 03:08:54;;;;;;;2.95;0.93;;;20.10;35.00;;;;;;5076754;28;20016;-85
2021/03/14 03:11:22;;;;;;;4.93;0.88;;;20.10;35.00;;;;;;5093402;28;20024;-86
2021/03/14 03:13:51;;;;;;;3.97;1.00;;;20.10;35.00;;;;;;5093075;28;20034;-85
2021/03/14 03:16:19;;;;;;;4.28;1.20;;;20.10;35.00;;;;;;5075801;28;20433;-85
2021/03/14 03:18:45;;;;;;;6.38;1.20;;;20.00;34.80;;;;;;5076345;28;20083;-85
2021/03/14 03:21:11;;;;;;;3.92;1.30;;;20.00;34.80;;;;;;5093355;28;20051;-88
2021/03/14 03:23:37;;;;;;;3.85;0.35;;;20.00;34.90;;;;;;5076299;28;20032;-87
2021/03/14 03:26:03;;;;;;;7.28;1.15;;;20.00;35.00;;;;;;5076958;28;20062;-87
2021/03/14 03:28:28;;;;;;;7.07;1.10;;;20.00;35.10;;;;;;5077107;28;20035;-87
2021/03/14 03:30:54;;;;;;;5.38;0.98;;;20.00;35.00;;;;;;5093193;28;20068;-81
2021/03/14 03:33:20;;;;;;;4.03;0.90;;;20.00;35.00;;;;;;5086026;28;20047;-79
2021/03/14 03:35:46;;;;;;;5.15;1.00;;;19.90;34.90;;;;;;5074597;28;20567;-79
2021/03/14 03:38:39;;;;;;;5.68;1.08;;;19.90;34.90;;;;;;5074690;28;20055;-81
2021/03/14 03:41:05;;;;;;;4.07;0.95;;;19.90;35.00;;;;;;5097197;28;20028;-80
2021/03/14 03:43:35;;;;;;;6.53;0.98;;;19.90;35.00;;;;;;5058930;28;20546;-82
2021/03/14 03:46:02;;;;;;;2.42;0.90;;;19.90;35.10;;;;;;5096506;28;20055;-79
2021/03/14 03:48:47;;;;;;;7.63;1.23;;;19.90;35.20;;;;;;5091994;28;20028;-80
2021/03/14 03:51:14;;;;;;;6.45;1.10;;;19.90;35.00;;;;;;5091931;28;20024;-80
2021/03/14 03:53:40;;;;;;;5.75;1.00;;;19.90;35.10;;;;;;5092787;28;20032;-80
2021/03/14 03:56:06;;;;;;;4.57;1.08;;;19.80;34.60;;;;;;5075511;28;20035;-81
2021/03/14 03:59:22;;;;;;;4.28;0.98;;;19.80;34.90;;;;;;5091313;28;20028;-82
2021/03/14 04:01:47;;;;;;;3.97;1.08;;;19.80;34.80;;;;;;5086380;28;20062;-82
2021/03/14 04:04:13;;;;;;;2.90;0.77;;;19.90;35.00;;;;;;5074833;28;20024;-80
2021/03/14 04:06:38;;;;;;;5.50;1.67;;;19.90;35.20;;;;;;5093134;28;20024;-81
2021/03/14 04:09:05;;;;;;;5.80;1.73;;;19.80;35.00;;;;;;5091834;28;20031;-78
2021/03/14 04:11:30;;;;;;;5.53;1.15;;;19.80;35.00;;;;;;5074939;28;20116;-77
2021/03/14 04:13:56;;;;;;;5.72;0.90;;;19.90;35.10;;;;;;5057895;28;20469;-79
2021/03/14 04:16:22;;;;;;;6.60;1.02;;;19.90;35.30;;;;;;5073922;28;20028;-80
2021/03/14 04:18:47;;;;;;;4.43;1.20;;;19.80;35.10;;;;;;5074270;28;20510;-79
2021/03/14 04:21:14;;;;;;;4.88;0.90;;;19.90;35.20;;;;;;5074780;28;20020;-78
2021/03/14 04:23:42;;;;;;;5.00;1.02;;;19.90;35.30;;;;;;5074315;28;20073;-83
2021/03/14 04:26:08;;;;;;;4.75;1.30;;;19.90;35.20;;;;;;5074006;28;20032;-82
2021/03/14 04:28:34;;;;;;;3.30;1.20;;;19.80;35.10;;;;;;5054793;28;20036;-84
2021/03/14 04:30:59;;;;;;;6.47;0.85;;;19.80;35.00;;;;;;5080447;28;20081;-81
2021/03/14 04:33:25;;;;;;;7.50;1.08;;;19.80;35.10;;;;;;5105495;28;20484;-83
2021/03/14 04:35:51;;;;;;;6.80;1.35;;;19.80;35.20;;;;;;5075362;28;20070;-79
2021/03/14 04:38:18;;;;;;;8.63;1.58;;;19.80;35.30;;;;;;5056448;28;20024;-78
2021/03/14 04:40:44;;;;;;;9.00;1.80;;;19.80;35.30;;;;;;5090726;28;20419;-79
2021/03/14 04:43:09;;;;;;;6.45;1.42;;;19.80;35.40;;;;;;5074252;28;20032;-79
2021/03/14 04:45:35;;;;;;;6.18;1.73;;;19.80;35.30;;;;;;5091087;28;20051;-79
2021/03/14 04:48:00;;;;;;;7.75;1.88;;;19.80;35.30;;;;;;5074230;28;20024;-80
2021/03/14 04:50:28;;;;;;;6.65;1.77;;;19.80;35.30;;;;;;5090952;28;20493;-79
2021/03/14 04:52:58;;;;;;;8.82;1.58;;;19.80;35.30;;;;;;5090252;28;20016;-80
2021/03/14 04:55:24;;;;;;;6.43;1.45;;;19.80;35.30;;;;;;5074611;28;20102;-79
2021/03/14 04:57:49;;;;;;;10.15;1.35;;;19.80;35.30;;;;;;5090378;28;20048;-79
2021/03/14 05:00:16;;;;;;;5.00;1.48;;;19.80;36.10;;;;;;5074326;28;20033;-79
2021/03/14 05:02:43;;;;;;;0.20;0.20;;;19.80;35.40;;;;;;5076177;28;20499;-79
2021/03/14 05:05:09;;;;;;;0.10;0.10;;;19.80;35.30;;;;;;5089525;28;20047;-79
2021/03/14 05:07:35;;;;;;;0.13;0.10;;;19.70;35.30;;;;;;5073604;28;20021;-79
2021/03/14 05:10:01;;;;;;;0.20;0.20;;;19.70;35.40;;;;;;5074559;28;20039;-74
2021/03/14 05:12:26;;;;;;;0.52;0.20;;;19.70;35.40;;;;;;5073772;28;20032;-75
2021/03/14 05:14:52;;;;;;;4.28;0.10;;;19.70;35.50;;;;;;5092034;28;20035;-74
2021/03/14 05:17:18;;;;;;;0.32;0.32;;;19.70;35.50;;;;;;5090894;28;20507;-75
2021/03/14 05:19:43;;;;;;;0.20;0.20;;;19.70;35.60;;;;;;5076988;28;20484;-75
2021/03/14 05:22:09;;;;;;;1.25;0.30;;;19.70;35.70;;;;;;5077984;28;20028;-76
2021/03/14 05:24:34;;;;;;;0.85;0.38;;;19.70;35.70;;;;;;5077291;28;20055;-76
2021/03/14 05:27:04;;;;;;;0.63;0.20;;;19.70;35.70;;;;;;5077903;28;20107;-75
2021/03/14 05:29:29;;;;;;;0.70;0.40;;;19.70;35.60;;;;;;5058079;28;20090;-75
2021/03/14 05:31:56;;;;;;;0.30;0.20;;;19.70;35.60;;;;;;5087236;28;20036;-76
2021/03/14 05:34:21;;;;;;;0.77;0.35;;;19.70;35.60;;;;;;5077803;28;20046;-76
2021/03/14 05:36:50;;;;;;;0.55;0.20;;;19.70;35.60;;;;;;5077619;28;20051;-80
2021/03/14 05:39:16;;;;;;;0.38;0.30;;;19.70;35.70;;;;;;5094246;28;20089;-80
2021/03/14 05:41:42;;;;;;;0.43;0.28;;;19.70;35.80;;;;;;5076030;28;20422;-79
2021/03/14 05:44:08;;;;;;;1.98;0.52;;;19.70;35.80;;;;;;5094590;28;20048;-80
2021/03/14 05:46:34;;;;;;;1.88;0.20;;;19.70;35.80;;;;;;5076394;28;20036;-80
2021/03/14 05:49:00;;;;;;;2.53;0.35;;;19.70;35.90;;;;;;5094016;28;20032;-81
2021/03/14 05:52:00;;;;;;;0.22;0.22;;;19.70;36.00;;;;;;5093668;28;20093;-80
2021/03/14 05:54:25;;;;;;;0.30;0.10;;;19.70;36.10;;;;;;5095424;28;20099;-81
2021/03/14 05:56:51;;;;;;;0.20;0.20;;;19.70;36.20;;;;;;5078237;28;20071;-82
2021/03/14 05:59:32;;;;;;;0.10;0.10;;;19.70;36.20;;;;;;5076751;28;20035;-83
2021/03/14 06:01:57;;;;;;;0.52;0.13;;;19.70;36.90;;;;;;5093174;28;20036;-80
2021/03/14 06:04:23;;;;;;;0.30;0.30;;;19.70;36.90;;;;;;5094789;28;20057;-78
2021/03/14 06:06:49;;;;;;;0.57;0.50;;;19.70;36.30;;;;;;5094236;28;20064;-80
2021/03/14 06:09:15;;;;;;;0.10;0.10;;;19.70;36.30;;;;;;5076362;28;20038;-83
2021/03/14 06:11:41;;;;;;;0.20;0.13;;;19.70;36.40;;;;;;5093768;28;20020;-79
2021/03/14 06:14:06;;;;;;;0.22;0.17;;;19.70;36.40;;;;;;5093542;28;20536;-80
2021/03/14 06:16:32;;;;;;;0.10;0.10;;;19.70;36.40;;;;;;5093590;28;20028;-78
2021/03/14 06:18:57;;;;;;;1.38;0.50;;;19.70;36.50;;;;;;5096986;28;20024;-80
2021/03/14 06:21:25;;;;;;;0.38;0.32;;;19.70;36.50;;;;;;5093437;28;20030;-82
2021/03/14 06:24:04;;;;;;;0.10;0.10;;;19.70;36.60;;;;;;5093889;28;20506;-75
2021/03/14 06:26:40;;;;;;;2.05;0.50;;;19.70;36.60;;;;;;5093537;28;20471;-74
2021/03/14 06:29:18;;;;;;;1.23;0.30;;;19.70;36.70;;;;;;5078031;28;20016;-74
2021/03/14 06:31:59;;;;;;;0.20;0.20;;;19.60;36.50;;;;;;5091190;28;20051;-75
2021/03/14 06:34:24;;;;;;;4.50;0.35;;;19.60;36.60;;;;;;5077473;28;20024;-74
2021/03/14 06:36:50;;;;;;;2.60;0.30;;;19.70;36.70;;;;;;5094405;28;20089;-75
2021/03/14 06:39:26;;;;;;;0.30;0.10;;;19.70;36.70;;;;;;5076203;28;20047;-74
2021/03/14 06:41:52;;;;;;;0.00;0.00;;;19.70;36.70;;;;;;5092410;28;20040;-75
2021/03/14 06:44:36;;;;;;;0.88;0.30;;;19.80;36.60;;;;;;5093302;28;20028;-74
2021/03/14 06:47:04;;;;;;;1.17;0.40;;;20.00;36.50;;;;;;5092682;28;20039;-75
2021/03/14 06:49:34;;;;;;;2.03;0.50;;;20.10;37.10;;;;;;5106667;28;20039;-75
2021/03/14 06:52:00;;;;;;;0.20;0.20;;;20.10;36.30;;;;;;5093120;28;20059;-76
2021/03/14 06:54:32;;;;;;;0.30;0.30;;;20.20;36.20;;;;;;5093101;28;20048;-75
2021/03/14 06:57:15;;;;;;;0.20;0.10;;;20.30;36.20;;;;;;5092134;28;20083;-75
2021/03/14 06:59:44;;;;;;;0.10;0.10;;;20.40;36.00;;;;;;5089768;28;20040;-75
2021/03/14 07:02:14;;;;;;;0.63;0.30;;;20.50;35.80;;;;;;5094519;28;20039;-76
2021/03/14 07:04:40;;;;;;;0.73;0.55;;;20.60;35.70;;;;;;5077232;28;20419;-76
2021/03/14 07:07:06;;;;;;;3.38;0.38;;;20.70;35.60;;;;;;5099253;28;20052;-76
2021/03/14 07:09:32;;;;;;;1.20;0.10;;;20.80;35.50;;;;;;5102163;28;20115;-74
2021/03/14 07:11:58;;;;;;;0.93;0.38;;;20.80;35.30;;;;;;5092196;28;20047;-75
2021/03/14 07:14:27;;;;;;;1.17;0.70;;;20.90;35.10;;;;;;5075449;28;20024;-75
2021/03/14 07:16:57;;;;;;;0.10;0.10;;;21.00;35.10;;;;;;5101651;28;20459;-76
2021/03/14 07:19:24;;;;;;;0.80;0.35;;;21.00;35.00;;;;;;5094232;28;20055;-74
2021/03/14 07:22:25;;;;;;;0.20;0.10;;;21.10;34.90;;;;;;5094324;28;20024;-76
2021/03/14 07:24:50;;;;;;;0.35;0.25;;;21.20;34.80;;;;;;5000265;28;20029;-74
2021/03/14 07:27:23;;;;;;;0.93;0.28;;;21.30;34.70;;;;;;4995052;28;20041;-77
2021/03/14 07:29:50;;;;;;;0.10;0.10;;;21.30;34.70;;;;;;4995475;28;20426;-77
2021/03/14 07:32:15;;;;;;;0.35;0.35;;;21.40;34.70;;;;;;4993897;28;20041;-77
2021/03/14 07:34:41;;;;;;;0.10;0.10;;;21.50;34.50;;;;;;4996101;28;20083;-75
2021/03/14 07:37:07;;;;;;;0.20;0.20;;;21.50;34.50;;;;;;4974856;28;20038;-76
2021/03/14 07:39:32;;;;;;;1.10;0.20;;;21.60;34.30;;;;;;4989174;28;20061;-75
2021/03/14 07:41:58;;;;;;;1.80;0.20;;;21.60;34.20;;;;;;4998186;28;20536;-75
2021/03/14 07:44:27;;;;;;;1.02;0.28;;;21.70;34.20;;;;;;4950246;28;20387;-75
2021/03/14 07:46:54;;;;;;;0.68;0.40;;;21.70;34.00;;;;;;4966377;28;20034;-74
2021/03/14 07:49:21;;;;;;;0.00;0.00;;;21.80;34.00;;;;;;4964593;28;20066;-74
2021/03/14 07:51:52;;;;;;;1.30;0.30;;;21.80;33.90;;;;;;4997029;28;20034;-74
2021/03/14 07:54:42;;;;;;;0.88;0.10;;;21.90;33.80;;;;;;4983668;28;20109;-74
2021/03/14 07:57:08;;;;;;;0.05;0.00;;;21.90;33.70;;;;;;5003953;28;20088;-74
2021/03/14 07:59:33;;;;;;;1.25;0.40;;;21.90;33.70;;;;;;5051039;28;20032;-74
2021/03/14 08:02:18;;;;;;;0.45;0.10;;;22.00;33.70;;;;;;5095196;28;20028;-75
2021/03/14 08:04:47;;;;;;;0.30;0.00;;;22.00;33.70;;;;;;5093599;28;20492;-75
2021/03/14 08:07:13;;;;;;;0.47;0.10;;;22.00;33.60;;;;;;5078077;28;20475;-75
2021/03/14 08:09:49;;;;;;;0.20;0.20;;;22.00;33.60;;;;;;5092967;28;20048;-75
2021/03/14 08:12:23;;;;;;;0.63;0.15;;;22.00;33.60;;;;;;5092137;28;20032;-74
2021/03/14 08:15:01;;;;;;;0.30;0.20;;;22.00;34.30;;;;;;5074401;28;20048;-74
2021/03/14 08:17:36;;;;;;;1.55;0.57;;;22.00;33.70;;;;;;5089479;28;20082;-73
2021/03/14 08:20:03;;;;;;;0.08;0.08;;;22.00;33.70;;;;;;5088403;28;20070;-73
2021/03/14 08:22:38;;;;;;;0.70;0.22;;;22.00;33.70;;;;;;5088552;28;20043;-73
2021/03/14 08:25:23;;;;;;;0.50;0.30;;;21.90;33.80;;;;;;5082460;28;20055;-73
2021/03/14 08:27:50;;;;;;;0.00;0.00;;;21.90;33.90;;;;;;5091584;28;20017;-74
2021/03/14 08:30:46;;;;;;;0.77;0.45;;;22.00;34.00;;;;;;5090187;28;20034;-74
2021/03/14 08:33:17;;;;;;;0.20;0.10;;;21.90;34.00;;;;;;5038790;28;20029;-74
2021/03/14 08:35:44;;;;;;;1.30;0.15;;;22.00;34.10;;;;;;5049388;28;20059;-74
2021/03/14 08:38:25;;;;;;;0.28;0.15;;;22.00;34.00;;;;;;5044195;28;20517;-74
2021/03/14 08:41:31;;;;;;;1.02;0.40;;;22.00;34.10;;;;;;5049089;28;20033;-74
2021/03/14 08:43:58;;;;;;;0.20;0.20;;;22.00;34.20;;;;;;5043548;28;20378;-74
2021/03/14 08:46:48;;;;;;;0.20;0.20;;;22.00;34.20;;;;;;5045283;28;20052;-74
2021/03/14 08:49:14;;;;;;;0.70;0.30;;;22.10;34.20;;;;;;5048128;28;20028;-74
2021/03/14 08:51:40;;;;;;;0.52;0.32;;;22.10;34.20;;;;;;5016652;28;20090;-74
2021/03/14 08:54:55;;;;;;;0.40;0.20;;;22.10;34.00;;;;;;5031195;28;20021;-75
2021/03/14 08:57:20;;;;;;;0.52;0.35;;;22.10;34.00;;;;;;5049079;28;20527;-74
2021/03/14 08:59:48;;;;;;;1.55;0.20;;;22.10;34.10;;;;;;5049318;28;20049;-73
2021/03/14 09:02:20;;;;;;;0.28;0.20;;;22.10;34.00;;;;;;5032853;28;20049;-74
2021/03/14 09:04:45;;;;;;;1.40;0.60;;;22.20;34.00;;;;;;5016540;28;20517;-74
2021/03/14 09:07:11;;;;;;;0.13;0.03;;;22.20;34.00;;;;;;5033980;28;20099;-73
2021/03/14 09:09:37;;;;;;;0.13;0.13;;;22.20;33.90;;;;;;5061102;28;20059;-73
2021/03/14 09:12:07;;;;;;;0.00;0.00;;;22.30;34.00;;;;;;5092552;28;20114;-74
2021/03/14 09:14:37;;;;;;;0.65;0.30;;;22.20;34.00;;;;;;5093827;28;20035;-73
2021/03/14 09:17:08;;;;;;;0.25;0.20;;;22.30;34.00;;;;;;5074442;28;20036;-74
2021/03/14 09:19:36;;;;;;;0.20;0.20;;;22.30;34.00;;;;;;5090462;28;20024;-73
2021/03/14 09:22:17;;;;;;;0.93;0.30;;;22.30;33.90;;;;;;5090995;28;20031;-74
2021/03/14 09:24:43;;;;;;;0.00;0.00;;;22.30;34.00;;;;;;5091451;28;20130;-74
2021/03/14 09:27:28;;;;;;;0.98;0.50;;;22.30;34.00;;;;;;5092217;28;20024;-74
2021/03/14 09:29:58;;;;;;;0.73;0.30;;;22.30;34.00;;;;;;5090045;28;20035;-73
2021/03/14 09:32:29;;;;;;;0.10;0.10;;;22.40;33.90;;;;;;5089817;28;20046;-73
2021/03/14 09:35:17;;;;;;;0.20;0.20;;;22.40;33.80;;;;;;5102151;28;20032;-73
2021/03/14 09:37:47;;;;;;;3.22;0.50;;;22.40;33.70;;;;;;5087877;28;20059;-73
2021/03/14 09:40:15;;;;;;;0.10;0.10;;;22.40;33.70;;;;;;5073720;28;20039;-74
2021/03/14 09:42:46;;;;;;;1.85;0.40;;;22.50;33.70;;;;;;5091065;28;20024;-74
2021/03/14 09:45:20;;;;;;;0.77;0.30;;;22.50;33.80;;;;;;5056481;28;20113;-74
2021/03/14 09:48:08;;;;;;;2.28;1.25;;;22.50;33.80;;;;;;5073170;28;20060;-74
2021/03/14 09:50:42;;;;;;;0.38;0.30;;;22.50;33.70;;;;;;5090085;28;20107;-74
2021/03/14 09:53:11;;;;;;;0.90;0.70;;;22.60;33.60;;;;;;5089287;28;20041;-79
2021/03/14 09:55:39;;;;;;;1.83;0.80;;;22.70;33.60;;;;;;5093342;28;20020;-79
2021/03/14 09:58:18;;;;;;;2.60;0.75;;;22.70;33.40;;;;;;5073070;28;20629;-78
2021/03/14 10:00:45;;;;;;;0.57;0.30;;;22.80;33.40;;;;;;5089845;28;20555;-79
2021/03/14 10:03:15;;;;;;;0.17;0.13;;;22.80;33.30;;;;;;5056836;28;20056;-79
2021/03/14 10:05:43;;;;;;;0.55;0.30;;;22.80;33.30;;;;;;5097357;28;20024;-79
2021/03/14 10:08:09;;;;;;;1.33;0.30;;;22.80;33.20;;;;;;5090239;28;20048;-79
2021/03/14 10:10:36;;;;;;;3.13;0.60;;;22.80;33.20;;;;;;5094194;28;20129;-79
2021/03/14 10:13:06;;;;;;;0.20;0.20;;;22.80;33.30;;;;;;5092197;28;20092;-74
2021/03/14 10:15:32;;;;;;;1.00;0.50;;;22.80;33.30;;;;;;5079320;28;20040;-74
2021/03/14 10:17:58;;;;;;;2.75;0.70;;;22.80;33.30;;;;;;5076198;28;20055;-74
2021/03/14 10:20:24;;;;;;;5.57;0.35;;;22.80;33.30;;;;;;5059558;28;20401;-74
2021/03/14 10:23:06;;;;;;;1.17;0.50;;;22.80;33.40;;;;;;5094427;28;20058;-79
2021/03/14 10:25:36;;;;;;;1.73;0.38;;;22.80;33.40;;;;;;5093081;28;20404;-79
2021/03/14 10:28:14;;;;;;;0.50;0.30;;;22.80;33.50;;;;;;5093959;28;20391;-79
2021/03/14 10:30:42;;;;;;;0.70;0.25;;;22.80;33.50;;;;;;5094549;28;20426;-79
2021/03/14 10:33:09;;;;;;;1.75;0.43;;;22.80;33.50;;;;;;5093331;28;20027;-79
2021/03/14 10:35:35;;;;;;;0.40;0.20;;;22.80;33.40;;;;;;5093641;28;20529;-79
2021/03/14 10:38:20;;;;;;;0.10;0.10;;;22.80;33.40;;;;;;5092733;28;20117;-79
2021/03/14 10:41:11;;;;;;;1.90;0.20;;;22.90;33.30;;;;;;5076979;28;20112;-78
2021/03/14 10:43:47;;;;;;;0.77;0.35;;;23.00;33.20;;;;;;5094051;28;20035;-79
2021/03/14 10:46:15;;;;;;;;;;;23.00;33.80;;;;;;5093751;28;20024;-78
2021/03/14 10:48:42;;;;;;;0.30;0.30;;;23.10;33.10;;;;;;5093606;28;20371;-79
2021/03/14 10:51:08;;;;;;;0.20;0.10;;;23.10;33.10;;;;;;5092360;28;20106;-79
2021/03/14 10:53:33;;;;;;;3.20;0.35;;;23.10;33.00;;;;;;5076001;28;20161;-79
2021/03/14 10:56:06;;;;;;;0.30;0.30;;;23.10;33.00;;;;;;5093592;28;20112;-79
2021/03/14 10:58:42;;;;;;;0.25;0.25;;;23.10;33.00;;;;;;5092409;28;20035;-79
2021/03/14 11:01:19;;;;;;;1.27;0.20;;;23.10;33.00;;;;;;5098955;28;20059;-78
2021/03/14 11:03:45;;;;;;;0.30;0.20;;;23.10;33.00;;;;;;5098409;28;20035;-78
2021/03/14 11:06:25;;;;;;;0.30;0.20;;;23.20;33.00;;;;;;5075590;28;20039;-79
2021/03/14 11:08:51;;;;;;;0.40;0.25;;;23.10;32.90;;;;;;5093255;28;20013;-78
2021/03/14 11:11:17;;;;;;;0.45;0.20;;;23.20;33.10;;;;;;5093936;28;20505;-78
2021/03/14 11:13:42;;;;;;;1.20;0.10;;;23.20;33.10;;;;;;5091784;28;20023;-78
2021/03/14 11:16:08;;;;;;;0.20;0.20;;;23.20;33.10;;;;;;5075045;28;20040;-79
2021/03/14 11:18:34;;;;;;;1.17;0.35;;;23.20;33.10;;;;;;5088356;28;20031;-78
2021/03/14 11:21:02;;;;;;;0.22;0.10;;;23.10;33.20;;;;;;5093055;28;20024;-74
2021/03/14 11:23:28;;;;;;;0.70;0.50;;;23.10;33.20;;;;;;5092112;28;20071;-74
2021/03/14 11:25:54;;;;;;;3.10;0.52;;;23.00;33.20;;;;;;5092391;28;20063;-74
2021/03/14 11:28:26;;;;;;;1.75;0.22;;;23.00;33.20;;;;;;5092063;28;20032;-74
2021/03/14 11:30:51;;;;;;;1.95;0.43;;;23.10;33.30;;;;;;5094119;28;20509;-74
2021/03/14 11:33:17;;;;;;;0.20;0.20;;;23.00;33.30;;;;;;5073964;28;20032;-74
2021/03/14 11:35:42;;;;;;;0.38;0.38;;;23.00;33.30;;;;;;5091981;28;20052;-74
2021/03/14 11:38:12;;;;;;;2.65;0.68;;;23.00;33.50;;;;;;5075510;28;20513;-75
2021/03/14 11:40:37;;;;;;;0.50;0.47;;;23.10;33.50;;;;;;5091823;28;20078;-75
2021/03/14 11:43:03;;;;;;;0.63;0.60;;;23.10;33.40;;;;;;5091942;28;20560;-74
2021/03/14 11:45:29;;;;;;;3.20;0.82;;;23.10;33.40;;;;;;5092342;28;20974;-73
2021/03/14 11:48:00;;;;;;;0.38;0.38;;;23.10;33.40;;;;;;5093169;28;20103;-74
2021/03/14 11:50:26;;;;;;;1.15;0.80;;;23.10;33.50;;;;;;5090155;28;20093;-74
2021/03/14 11:52:51;;;;;;;1.60;0.65;;;23.10;33.40;;;;;;5075127;28;20438;-74
2021/03/14 11:55:17;;;;;;;0.93;0.68;;;23.10;33.40;;;;;;5093263;28;20035;-74
2021/03/14 11:57:43;;;;;;;2.83;1.85;;;23.10;33.40;;;;;;5093444;28;20028;-73
2021/03/14 12:00:09;;;;;;;2.58;1.80;;;23.00;33.40;;;;;;5072530;28;20064;-74
2021/03/14 12:02:35;;;;;;;4.68;1.85;;;23.00;33.40;;;;;;5078995;28;20078;-74
2021/03/14 12:05:01;;;;;;;3.45;1.95;;;23.10;33.40;;;;;;5089460;28;20032;-74
2021/03/14 12:07:27;;;;;;;1.88;1.63;;;23.00;33.50;;;;;;5084665;28;20061;-74
2021/03/14 12:09:53;;;;;;;3.22;2.10;;;23.10;33.50;;;;;;5093022;28;20503;-75
2021/03/14 12:12:18;;;;;;;2.50;1.65;;;23.10;33.40;;;;;;5090019;28;20487;-74
2021/03/14 12:14:56;;;;;;;2.33;1.60;;;23.20;33.40;;;;;;5091385;28;20039;-74
2021/03/14 12:17:25;;;;;;;4.82;2.33;;;23.20;33.30;;;;;;5090755;28;20038;-74
2021/03/14 12:19:51;;;;;;;3.08;2.22;;;23.20;33.30;;;;;;5085544;28;20108;-78
2021/03/14 12:22:16;;;;;;;3.15;2.30;;;23.20;33.30;;;;;;5074582;28;20119;-78
2021/03/14 12:24:42;;;;;;;3.83;2.08;;;23.20;33.30;;;;;;5074380;28;20059;-78
2021/03/14 12:27:07;;;;;;;4.03;2.45;;;23.20;33.40;;;;;;5090839;28;20040;-78
2021/03/14 12:29:33;;;;;;;4.10;2.45;;;23.20;33.40;;;;;;5089922;28;20028;-78
2021/03/14 12:31:58;;;;;;;4.18;2.30;;;23.20;33.40;;;;;;5074693;28;20036;-79
2021/03/14 12:34:24;;;;;;;3.25;2.17;;;23.20;33.40;;;;;;5091493;28;20407;-78
2021/03/14 12:36:53;;;;;;;2.70;1.98;;;23.20;33.40;;;;;;5092992;28;20048;-78
2021/03/14 12:39:18;;;;;;;3.13;2.22;;;23.20;33.30;;;;;;5092370;28;20028;-78
2021/03/14 12:41:44;;;;;;;3.00;2.35;;;23.20;33.30;;;;;;5092789;28;20377;-78
2021/03/14 12:44:09;;;;;;;3.92;1.90;;;23.30;33.10;;;;;;5091089;28;20036;-78
2021/03/14 12:46:35;;;;;;;3.55;2.15;;;23.30;33.00;;;;;;5092037;28;20501;-78
2021/03/14 12:49:00;;;;;;;3.05;2.17;;;23.40;33.10;;;;;;5092461;28;20032;-78
2021/03/14 12:51:26;;;;;;;3.38;2.20;;;23.40;33.00;;;;;;5092348;28;20016;-78
2021/03/14 12:53:52;;;;;;;2.42;1.98;;;23.30;32.90;;;;;;5069609;28;20033;-78
2021/03/14 12:56:17;;;;;;;2.80;1.80;;;23.30;33.20;;;;;;5088231;28;20040;-78